• Join FlightAware (Why Join?)
  • Login
  • US Flag 
09:28AM EDT


 

Airport Tracker/Info


-or-


 

Live Flight TrackerFlight Track Log ✈ LXJ541 ✈ 30-May-2013 ✈ KSUN - KBIL

Flight Track Log - Related Links

Times and Time Zones

All times are in EDT time to prevent confusion due to time zone crossing. See the LXJ541 flight status page for this flight to view local times or setup timezone preferences in your user account.

Time Position Orientation Groundspeed Altitude Reporting Facility
EDT Latitude Longitude Course Direction KTS MPH feet Rate Location/Type
01:23PM 43.3611 -114.2314 72° East 265 305 14,700  Level Salt Lake Center
01:24PM 43.3739 -114.1236 81° East 316 364 18,300 3,360 Climbing Salt Lake Center
01:25PM 43.4244 -113.9964 61° Northeast 354 407 21,600 3,000 Climbing Salt Lake Center
01:26PM 43.7249 -113.4756 65° Northeast  Level FlightAware Approximate
01:26PM 43.4731 -113.8739 61° Northeast 379 436 24,500  Level Salt Lake Center
01:27PM 43.7683 -113.3428 72° East  Level FlightAware Approximate
01:27PM 43.5269 -113.7350 62° Northeast 406 467 27,200  Level Salt Lake Center
01:28PM 43.8005 -113.2037 72° East  Level FlightAware Approximate
01:28PM 43.5825 -113.5814 63° Northeast 426 490 29,500  Level Salt Lake Center
01:29PM 43.6367 -113.4347 63° Northeast 444 511 30,900 1,800 Climbing Salt Lake Center
01:30PM 43.7053 -113.2550 62° Northeast 466 536 33,200 1,920 Climbing Salt Lake Center
01:31PM 43.7628 -113.0992 63° Northeast 473 544 34,900 840 Climbing Salt Lake Center
01:32PM 43.8319 -112.9142 63° Northeast 482 555 35,000  Climbing Salt Lake Center
01:33PM 43.8931 -112.7539 62° Northeast 490 564 35,000  Level Salt Lake Center
01:35PM 43.9792 -112.5831 55° Northeast 487 560 35,000  Level Salt Lake Center
01:36PM 44.0503 -112.4339 56° Northeast 485 558 35,000  Level Salt Lake Center
01:37PM 44.1214 -112.2847 56° Northeast 484 557 35,000  Level Salt Lake Center
01:38PM 44.2053 -112.1133 56° Northeast 482 555 35,000  Level Salt Lake Center
01:39PM 44.2764 -111.9650 56° Northeast 481 554 35,000  Level Salt Lake Center
01:40PM 44.3575 -111.7933 57° Northeast 477 549 35,000  Level Salt Lake Center
01:41PM 44.4275 -111.6458 56° Northeast 476 548 35,000  Level Salt Lake Center
01:42PM 44.5072 -111.4747 57° Northeast 476 548 35,000  Level Salt Lake Center
01:43PM 44.5842 -111.3131 56° Northeast 471 542 35,000  Level Salt Lake Center
01:44PM 44.6522 -111.1639 57° Northeast 475 547 35,000  Level Salt Lake Center
01:45PM 44.7208 -111.0133 57° Northeast 478 550 35,000  Level Salt Lake Center
01:46PM 44.8008 -110.8406 57° Northeast 475 547 35,000  Level Salt Lake Center
01:47PM 44.8681 -110.6906 58° Northeast 475 547 35,000  Level Salt Lake Center
01:48PM 44.9456 -110.5217 57° Northeast 460 529 35,000  Level Salt Lake Center
01:49PM 45.0083 -110.3833 57° Northeast 440 506 35,000  Level Salt Lake Center
01:50PM 45.0781 -110.2283 57° Northeast 421 484 35,000  Level Salt Lake Center
01:51PM 45.1428 -110.0811 58° Northeast 422 486 35,000  Level Salt Lake Center
01:52PM 45.2061 -109.9400 57° Northeast 437 503 35,000 -600 Level Salt Lake Center
01:53PM 45.2808 -109.7714 58° Northeast 449 517 33,800 -1,320 Descending Salt Lake Center
01:54PM 45.3425 -109.6322 58° Northeast 438 504 32,300 -1,500 Descending Salt Lake Center
01:55PM 45.4019 -109.4933 59° Northeast 430 495 30,700 -1,860 Descending Salt Lake Center
01:56PM 45.4739 -109.3264 58° Northeast 440 506 28,500 -2,220 Descending Salt Lake Center
01:57PM 45.5319 -109.1811 60° Northeast 440 506 26,200 -3,180 Descending Salt Lake Center
01:58PM 45.5675 -109.0086 74° East 406 467 22,000 -3,900 Descending Salt Lake Center
01:59PM 45.5983 -108.8608 73° East 386 444 18,200 -3,840 Descending Salt Lake Center
02:00PM 45.6300 -108.7081 73° East 377 434 14,000 -3,180 Descending Salt Lake Center
02:01PM 45.6414 -108.5556 84° East 362 417 11,600 -2,040 Descending Salt Lake Center
02:02PM 45.6489 -108.4272 85° East 333 383 9,800 -1,920 Descending Salt Lake Center
02:03PM 45.6569 -108.2967 85° East 307 353 7,700 -1,860 Descending Salt Lake Center
02:04PM 45.6897 -108.2106 61° Northeast 269 310 6,000 -840 Descending Salt Lake Center
02:06PM 45.7294 -108.2589 320° Northwest 171 197 6,000  Level Salt Lake Center
02:07PM 45.7489 -108.3269 292° West 170 196 6,000 -300 Level Salt Lake Center
02:08PM 45.7653 -108.3853 292° West 160 184 5,500 -720 Descending Salt Lake Center
02:09PM 45.7825 -108.4467 292° West 156 180 4,600 -780 Descending Salt Lake Center
02:10PM 45.7939 -108.4861 293° West 114 131 4,000 -600 Descending Salt Lake Center